sensor_id;sensor_type;location;lat;lon;timestamp;pressure;altitude;pressure_sealevel;temperature;humidity
19831;BME280;10076;52.008;4.708;2024-03-08T00:00:08;101851.59;;;6.40;100.00
19831;BME280;10076;52.008;4.708;2024-03-08T00:02:40;101848.56;;;6.50;100.00
19831;BME280;10076;52.008;4.708;2024-03-08T00:05:07;101835.91;;;6.38;100.00
19831;BME280;10076;52.008;4.708;2024-03-08T00:07:34;101840.78;;;6.49;100.00
19831;BME280;10076;52.008;4.708;2024-03-08T00:10:00;101839.22;;;6.43;100.00
19831;BME280;10076;52.008;4.708;2024-03-08T00:12:25;101838.09;;;6.50;100.00
19831;BME280;10076;52.008;4.708;2024-03-08T00:14:53;101827.38;;;6.33;100.00
19831;BME280;10076;52.008;4.708;2024-03-08T00:17:19;101835.84;;;6.40;100.00
19831;BME280;10076;52.008;4.708;2024-03-08T00:19:45;101842.06;;;6.37;100.00
19831;BME280;10076;52.008;4.708;2024-03-08T00:22:10;101831.47;;;6.40;100.00
19831;BME280;10076;52.008;4.708;2024-03-08T00:24:36;101833.53;;;6.32;100.00
19831;BME280;10076;52.008;4.708;2024-03-08T00:27:02;101826.50;;;6.33;100.00
19831;BME280;10076;52.008;4.708;2024-03-08T00:29:29;101825.66;;;6.32;100.00
19831;BME280;10076;52.008;4.708;2024-03-08T00:31:55;101826.34;;;6.37;100.00
19831;BME280;10076;52.008;4.708;2024-03-08T00:34:20;101814.94;;;6.38;100.00
19831;BME280;10076;52.008;4.708;2024-03-08T00:36:45;101817.44;;;6.41;100.00
19831;BME280;10076;52.008;4.708;2024-03-08T00:39:11;101815.28;;;6.29;100.00
19831;BME280;10076;52.008;4.708;2024-03-08T00:41:37;101821.09;;;6.37;100.00
19831;BME280;10076;52.008;4.708;2024-03-08T00:44:02;101812.31;;;6.16;100.00
19831;BME280;10076;52.008;4.708;2024-03-08T00:46:29;101821.84;;;6.18;100.00
19831;BME280;10076;52.008;4.708;2024-03-08T00:48:55;101810.06;;;6.29;100.00
19831;BME280;10076;52.008;4.708;2024-03-08T00:51:21;101809.34;;;6.24;100.00
19831;BME280;10076;52.008;4.708;2024-03-08T00:53:47;101810.31;;;6.22;100.00
19831;BME280;10076;52.008;4.708;2024-03-08T00:56:12;101806.72;;;6.24;100.00
19831;BME280;10076;52.008;4.708;2024-03-08T00:58:37;101803.88;;;6.08;100.00
19831;BME280;10076;52.008;4.708;2024-03-08T01:01:03;101802.16;;;6.07;100.00
19831;BME280;10076;52.008;4.708;2024-03-08T01:03:30;101801.66;;;5.97;100.00
19831;BME280;10076;52.008;4.708;2024-03-08T01:05:57;101789.84;;;6.09;100.00
19831;BME280;10076;52.008;4.708;2024-03-08T01:08:22;101792.09;;;6.19;100.00
19831;BME280;10076;52.008;4.708;2024-03-08T01:10:48;101782.81;;;6.11;100.00
19831;BME280;10076;52.008;4.708;2024-03-08T01:13:16;101783.56;;;5.90;100.00
19831;BME280;10076;52.008;4.708;2024-03-08T01:15:41;101779.22;;;5.90;100.00
19831;BME280;10076;52.008;4.708;2024-03-08T01:18:07;101780.56;;;6.00;100.00
19831;BME280;10076;52.008;4.708;2024-03-08T01:20:32;101773.97;;;5.90;100.00
19831;BME280;10076;52.008;4.708;2024-03-08T01:22:57;101766.41;;;5.81;100.00
19831;BME280;10076;52.008;4.708;2024-03-08T01:25:23;101761.38;;;6.00;100.00
19831;BME280;10076;52.008;4.708;2024-03-08T01:27:48;101759.50;;;6.03;100.00
19831;BME280;10076;52.008;4.708;2024-03-08T01:30:13;101759.28;;;5.86;100.00
19831;BME280;10076;52.008;4.708;2024-03-08T01:32:42;101751.84;;;5.73;100.00
19831;BME280;10076;52.008;4.708;2024-03-08T01:35:09;101745.44;;;5.83;100.00
19831;BME280;10076;52.008;4.708;2024-03-08T01:37:34;101738.56;;;5.79;100.00
19831;BME280;10076;52.008;4.708;2024-03-08T01:40:00;101740.41;;;5.75;100.00
19831;BME280;10076;52.008;4.708;2024-03-08T01:42:25;101741.44;;;5.71;100.00
19831;BME280;10076;52.008;4.708;2024-03-08T01:44:51;101746.28;;;5.59;100.00
19831;BME280;10076;52.008;4.708;2024-03-08T01:47:17;101737.38;;;5.63;100.00
19831;BME280;10076;52.008;4.708;2024-03-08T01:49:43;101739.25;;;5.84;100.00
19831;BME280;10076;52.008;4.708;2024-03-08T01:52:08;101732.47;;;5.78;100.00
19831;BME280;10076;52.008;4.708;2024-03-08T01:54:35;101734.31;;;5.75;100.00
19831;BME280;10076;52.008;4.708;2024-03-08T01:57:01;101738.00;;;5.69;100.00
19831;BME280;10076;52.008;4.708;2024-03-08T01:59:26;101730.44;;;5.62;100.00
19831;BME280;10076;52.008;4.708;2024-03-08T02:01:55;101725.41;;;5.56;100.00
19831;BME280;10076;52.008;4.708;2024-03-08T02:04:20;101730.59;;;5.57;100.00
19831;BME280;10076;52.008;4.708;2024-03-08T02:06:46;101724.50;;;5.57;100.00
19831;BME280;10076;52.008;4.708;2024-03-08T02:09:13;101720.91;;;5.59;100.00
19831;BME280;10076;52.008;4.708;2024-03-08T02:11:40;101714.47;;;5.45;100.00
19831;BME280;10076;52.008;4.708;2024-03-08T02:14:06;101717.84;;;5.48;100.00
19831;BME280;10076;52.008;4.708;2024-03-08T02:16:31;101711.97;;;5.42;100.00
19831;BME280;10076;52.008;4.708;2024-03-08T02:18:57;101706.09;;;5.36;100.00
19831;BME280;10076;52.008;4.708;2024-03-08T02:21:23;101700.00;;;5.35;100.00
19831;BME280;10076;52.008;4.708;2024-03-08T02:23:49;101698.88;;;5.42;100.00
19831;BME280;10076;52.008;4.708;2024-03-08T02:26:17;101687.25;;;5.49;100.00
19831;BME280;10076;52.008;4.708;2024-03-08T02:28:43;101698.28;;;5.34;100.00
19831;BME280;10076;52.008;4.708;2024-03-08T02:31:09;101679.69;;;5.42;100.00
19831;BME280;10076;52.008;4.708;2024-03-08T02:33:35;101686.84;;;5.37;100.00
19831;BME280;10076;52.008;4.708;2024-03-08T02:36:00;101680.34;;;5.24;100.00
19831;BME280;10076;52.008;4.708;2024-03-08T02:38:26;101682.81;;;5.28;100.00
19831;BME280;10076;52.008;4.708;2024-03-08T02:40:53;101678.41;;;5.29;100.00
19831;BME280;10076;52.008;4.708;2024-03-08T02:43:19;101673.81;;;5.35;100.00
19831;BME280;10076;52.008;4.708;2024-03-08T02:45:45;101676.66;;;5.29;100.00
19831;BME280;10076;52.008;4.708;2024-03-08T02:48:11;101676.06;;;5.21;100.00
19831;BME280;10076;52.008;4.708;2024-03-08T02:50:38;101665.25;;;5.07;100.00
19831;BME280;10076;52.008;4.708;2024-03-08T02:53:05;101667.22;;;5.25;100.00
19831;BME280;10076;52.008;4.708;2024-03-08T02:55:31;101667.44;;;5.19;100.00
19831;BME280;10076;52.008;4.708;2024-03-08T02:57:56;101664.34;;;5.08;100.00
19831;BME280;10076;52.008;4.708;2024-03-08T03:00:22;101663.25;;;5.14;100.00
19831;BME280;10076;52.008;4.708;2024-03-08T03:02:51;101658.59;;;4.97;100.00
19831;BME280;10076;52.008;4.708;2024-03-08T03:05:20;101659.31;;;5.02;100.00
19831;BME280;10076;52.008;4.708;2024-03-08T03:07:45;101656.25;;;5.14;100.00
19831;BME280;10076;52.008;4.708;2024-03-08T03:10:11;101643.22;;;5.13;100.00
19831;BME280;10076;52.008;4.708;2024-03-08T03:12:37;101647.22;;;4.98;100.00
19831;BME280;10076;52.008;4.708;2024-03-08T03:15:03;101643.94;;;4.93;100.00
19831;BME280;10076;52.008;4.708;2024-03-08T03:17:29;101631.44;;;5.01;100.00
19831;BME280;10076;52.008;4.708;2024-03-08T03:19:55;101634.41;;;5.15;100.00
19831;BME280;10076;52.008;4.708;2024-03-08T03:22:21;101637.59;;;4.75;100.00
19831;BME280;10076;52.008;4.708;2024-03-08T03:24:46;101636.34;;;4.86;100.00
19831;BME280;10076;52.008;4.708;2024-03-08T03:27:13;101626.03;;;4.81;100.00
19831;BME280;10076;52.008;4.708;2024-03-08T03:29:39;101627.97;;;4.77;100.00
19831;BME280;10076;52.008;4.708;2024-03-08T03:32:10;101623.00;;;4.93;100.00
19831;BME280;10076;52.008;4.708;2024-03-08T03:34:35;101626.84;;;4.83;100.00
19831;BME280;10076;52.008;4.708;2024-03-08T03:37:04;101631.44;;;5.01;100.00
19831;BME280;10076;52.008;4.708;2024-03-08T03:39:29;101624.72;;;4.94;100.00
19831;BME280;10076;52.008;4.708;2024-03-08T03:41:57;101625.88;;;4.62;100.00
19831;BME280;10076;52.008;4.708;2024-03-08T03:44:23;101627.75;;;4.82;100.00
19831;BME280;10076;52.008;4.708;2024-03-08T03:46:49;101618.31;;;4.78;100.00
19831;BME280;10076;52.008;4.708;2024-03-08T03:49:15;101620.91;;;4.78;100.00
19831;BME280;10076;52.008;4.708;2024-03-08T03:51:41;101617.72;;;4.71;100.00
19831;BME280;10076;52.008;4.708;2024-03-08T03:54:06;101622.03;;;4.72;100.00
19831;BME280;10076;52.008;4.708;2024-03-08T03:56:32;101625.06;;;4.84;100.00
19831;BME280;10076;52.008;4.708;2024-03-08T03:58:58;101609.91;;;4.69;100.00
19831;BME280;10076;52.008;4.708;2024-03-08T04:01:23;101613.50;;;4.67;100.00
19831;BME280;10076;52.008;4.708;2024-03-08T04:03:49;101611.56;;;4.72;100.00
19831;BME280;10076;52.008;4.708;2024-03-08T04:06:14;101607.88;;;4.53;100.00
19831;BME280;10076;52.008;4.708;2024-03-08T04:08:40;101602.91;;;4.70;100.00
19831;BME280;10076;52.008;4.708;2024-03-08T04:11:06;101601.09;;;4.72;100.00
19831;BME280;10076;52.008;4.708;2024-03-08T04:13:32;101598.72;;;4.66;100.00
19831;BME280;10076;52.008;4.708;2024-03-08T04:15:58;101584.75;;;4.65;100.00
19831;BME280;10076;52.008;4.708;2024-03-08T04:18:23;101587.31;;;4.42;100.00
19831;BME280;10076;52.008;4.708;2024-03-08T04:20:48;101584.19;;;4.31;100.00
19831;BME280;10076;52.008;4.708;2024-03-08T04:23:15;101580.00;;;4.52;100.00
19831;BME280;10076;52.008;4.708;2024-03-08T04:25:41;101585.66;;;4.40;100.00
19831;BME280;10076;52.008;4.708;2024-03-08T04:28:07;101581.44;;;4.36;100.00
19831;BME280;10076;52.008;4.708;2024-03-08T04:30:33;101577.56;;;4.47;100.00
19831;BME280;10076;52.008;4.708;2024-03-08T04:32:58;101583.03;;;4.40;100.00
19831;BME280;10076;52.008;4.708;2024-03-08T04:35:23;101574.00;;;4.24;100.00
19831;BME280;10076;52.008;4.708;2024-03-08T04:37:49;101581.63;;;4.30;100.00
19831;BME280;10076;52.008;4.708;2024-03-08T04:40:14;101576.97;;;4.39;100.00
19831;BME280;10076;52.008;4.708;2024-03-08T04:42:40;101581.69;;;4.28;100.00
19831;BME280;10076;52.008;4.708;2024-03-08T04:45:08;101576.47;;;4.28;100.00
19831;BME280;10076;52.008;4.708;2024-03-08T04:47:36;101575.03;;;4.44;100.00
19831;BME280;10076;52.008;4.708;2024-03-08T04:50:02;101571.03;;;4.34;100.00
19831;BME280;10076;52.008;4.708;2024-03-08T04:52:27;101568.16;;;4.16;100.00
19831;BME280;10076;52.008;4.708;2024-03-08T04:54:53;101566.16;;;4.24;100.00
19831;BME280;10076;52.008;4.708;2024-03-08T04:57:18;101569.72;;;4.21;100.00
19831;BME280;10076;52.008;4.708;2024-03-08T04:59:44;101563.31;;;4.06;100.00
19831;BME280;10076;52.008;4.708;2024-03-08T05:02:09;101566.47;;;4.15;100.00
19831;BME280;10076;52.008;4.708;2024-03-08T05:04:34;101567.78;;;4.02;100.00
19831;BME280;10076;52.008;4.708;2024-03-08T05:07:00;101559.75;;;4.08;100.00
19831;BME280;10076;52.008;4.708;2024-03-08T05:09:26;101556.91;;;3.88;100.00
19831;BME280;10076;52.008;4.708;2024-03-08T05:11:56;101565.88;;;3.81;100.00
19831;BME280;10076;52.008;4.708;2024-03-08T05:14:23;101555.19;;;3.87;100.00
19831;BME280;10076;52.008;4.708;2024-03-08T05:16:50;101556.03;;;4.15;100.00
19831;BME280;10076;52.008;4.708;2024-03-08T05:19:19;101554.59;;;4.05;100.00
19831;BME280;10076;52.008;4.708;2024-03-08T05:21:49;101559.75;;;4.08;100.00
19831;BME280;10076;52.008;4.708;2024-03-08T05:24:14;101552.59;;;4.13;100.00
19831;BME280;10076;52.008;4.708;2024-03-08T05:26:40;101550.94;;;4.10;100.00
19831;BME280;10076;52.008;4.708;2024-03-08T05:29:07;101552.28;;;3.96;100.00
19831;BME280;10076;52.008;4.708;2024-03-08T05:31:39;101546.19;;;3.97;100.00
19831;BME280;10076;52.008;4.708;2024-03-08T05:34:07;101551.41;;;3.97;100.00
19831;BME280;10076;52.008;4.708;2024-03-08T05:36:35;101546.19;;;3.97;100.00
19831;BME280;10076;52.008;4.708;2024-03-08T05:39:00;101539.69;;;3.83;100.00
19831;BME280;10076;52.008;4.708;2024-03-08T05:41:25;101545.78;;;4.09;100.00
19831;BME280;10076;52.008;4.708;2024-03-08T05:43:51;101548.38;;;4.09;100.00
19831;BME280;10076;52.008;4.708;2024-03-08T05:46:16;101543.94;;;4.11;100.00
19831;BME280;10076;52.008;4.708;2024-03-08T05:48:43;101543.06;;;3.86;100.00
19831;BME280;10076;52.008;4.708;2024-03-08T05:51:08;101537.63;;;3.92;100.00
19831;BME280;10076;52.008;4.708;2024-03-08T05:53:34;101543.09;;;3.85;100.00
19831;BME280;10076;52.008;4.708;2024-03-08T05:55:59;101543.84;;;3.88;100.00
19831;BME280;10076;52.008;4.708;2024-03-08T05:58:27;101535.25;;;3.85;100.00
19831;BME280;10076;52.008;4.708;2024-03-08T06:00:55;101534.06;;;3.95;100.00
19831;BME280;10076;52.008;4.708;2024-03-08T06:03:20;101537.03;;;3.84;100.00
19831;BME280;10076;52.008;4.708;2024-03-08T06:05:47;101527.72;;;3.76;100.00
19831;BME280;10076;52.008;4.708;2024-03-08T06:08:13;101525.56;;;3.62;100.00
19831;BME280;10076;52.008;4.708;2024-03-08T06:10:40;101522.63;;;3.71;100.00
19831;BME280;10076;52.008;4.708;2024-03-08T06:13:05;101521.75;;;3.98;100.00
19831;BME280;10076;52.008;4.708;2024-03-08T06:15:31;101526.56;;;3.84;100.00
19831;BME280;10076;52.008;4.708;2024-03-08T06:17:57;101516.25;;;3.80;100.00
19831;BME280;10076;52.008;4.708;2024-03-08T06:20:22;101520.09;;;3.70;100.00
19831;BME280;10076;52.008;4.708;2024-03-08T06:22:51;101524.28;;;3.75;100.00
19831;BME280;10076;52.008;4.708;2024-03-08T06:25:17;101522.56;;;3.74;100.00
19831;BME280;10076;52.008;4.708;2024-03-08T06:27:42;101516.94;;;3.86;100.00
19831;BME280;10076;52.008;4.708;2024-03-08T06:30:09;101520.63;;;4.05;100.00
19831;BME280;10076;52.008;4.708;2024-03-08T06:32:35;101520.31;;;3.90;100.00
19831;BME280;10076;52.008;4.708;2024-03-08T06:35:04;101515.78;;;3.95;100.00
19831;BME280;10076;52.008;4.708;2024-03-08T06:37:33;101505.88;;;4.04;100.00
19831;BME280;10076;52.008;4.708;2024-03-08T06:39:58;101502.47;;;4.02;100.00
19831;BME280;10076;52.008;4.708;2024-03-08T06:42:26;101503.34;;;4.01;100.00
19831;BME280;10076;52.008;4.708;2024-03-08T06:44:51;101500.34;;;4.13;100.00
19831;BME280;10076;52.008;4.708;2024-03-08T06:47:16;101502.13;;;4.11;100.00
19831;BME280;10076;52.008;4.708;2024-03-08T06:49:42;101499.28;;;4.18;100.00
19831;BME280;10076;52.008;4.708;2024-03-08T06:52:09;101492.84;;;4.03;100.00
19831;BME280;10076;52.008;4.708;2024-03-08T06:54:35;101494.69;;;4.25;100.00
19831;BME280;10076;52.008;4.708;2024-03-08T06:57:05;101478.88;;;4.28;100.00
19831;BME280;10076;52.008;4.708;2024-03-08T06:59:31;101497.03;;;4.32;100.00
19831;BME280;10076;52.008;4.708;2024-03-08T07:01:57;101491.50;;;4.41;100.00
19831;BME280;10076;52.008;4.708;2024-03-08T07:04:24;101492.19;;;4.46;100.00
19831;BME280;10076;52.008;4.708;2024-03-08T07:06:54;101490.19;;;4.53;100.00
19831;BME280;10076;52.008;4.708;2024-03-08T07:09:19;101490.97;;;4.32;100.00
19831;BME280;10076;52.008;4.708;2024-03-08T07:11:44;101484.06;;;4.54;100.00
19831;BME280;10076;52.008;4.708;2024-03-08T07:14:12;101485.19;;;4.47;100.00
19831;BME280;10076;52.008;4.708;2024-03-08T07:16:37;101485.88;;;4.52;100.00
19831;BME280;10076;52.008;4.708;2024-03-08T07:19:04;101481.22;;;4.60;100.00
19831;BME280;10076;52.008;4.708;2024-03-08T07:21:30;101475.34;;;4.78;100.00
19831;BME280;10076;52.008;4.708;2024-03-08T07:23:56;101479.47;;;4.83;100.00
19831;BME280;10076;52.008;4.708;2024-03-08T07:26:24;101479.88;;;4.95;100.00
19831;BME280;10076;52.008;4.708;2024-03-08T07:28:49;101478.41;;;4.88;100.00
19831;BME280;10076;52.008;4.708;2024-03-08T07:31:14;101474.19;;;5.07;100.00
19831;BME280;10076;52.008;4.708;2024-03-08T07:33:40;101476.69;;;4.87;100.00
19831;BME280;10076;52.008;4.708;2024-03-08T07:36:05;101470.72;;;5.07;100.00
19831;BME280;10076;52.008;4.708;2024-03-08T07:38:30;101471.69;;;5.04;100.00
19831;BME280;10076;52.008;4.708;2024-03-08T07:40:56;101466.53;;;5.24;100.00
19831;BME280;10076;52.008;4.708;2024-03-08T07:43:22;101463.38;;;5.38;100.00
19831;BME280;10076;52.008;4.708;2024-03-08T07:45:48;101467.03;;;5.34;100.00
19831;BME280;10076;52.008;4.708;2024-03-08T07:48:18;101463.13;;;5.22;100.00
19831;BME280;10076;52.008;4.708;2024-03-08T07:50:43;101469.09;;;5.26;100.00
19831;BME280;10076;52.008;4.708;2024-03-08T07:53:09;101461.19;;;5.48;100.00
19831;BME280;10076;52.008;4.708;2024-03-08T07:55:35;101467.47;;;5.66;100.00
19831;BME280;10076;52.008;4.708;2024-03-08T07:58:03;101465.94;;;5.82;100.00
19831;BME280;10076;52.008;4.708;2024-03-08T08:00:29;101455.28;;;5.65;100.00
19831;BME280;10076;52.008;4.708;2024-03-08T08:02:56;101454.66;;;5.80;100.00
19831;BME280;10076;52.008;4.708;2024-03-08T08:05:21;101460.72;;;6.02;100.00
19831;BME280;10076;52.008;4.708;2024-03-08T08:07:47;101454.59;;;5.81;100.00
19831;BME280;10076;52.008;4.708;2024-03-08T08:10:13;101446.59;;;6.06;100.00
19831;BME280;10076;52.008;4.708;2024-03-08T08:12:48;101450.97;;;6.25;100.00
19831;BME280;10076;52.008;4.708;2024-03-08T08:15:14;101444.06;;;6.42;100.00
19831;BME280;10076;52.008;4.708;2024-03-08T08:17:43;101446.19;;;6.34;100.00
19831;BME280;10076;52.008;4.708;2024-03-08T08:20:13;101441.25;;;6.65;100.00
19831;BME280;10076;52.008;4.708;2024-03-08T08:22:39;101440.06;;;6.54;100.00
19831;BME280;10076;52.008;4.708;2024-03-08T08:25:08;101445.19;;;6.75;100.00
19831;BME280;10076;52.008;4.708;2024-03-08T08:27:35;101432.06;;;6.75;100.00
19831;BME280;10076;52.008;4.708;2024-03-08T08:30:02;101431.66;;;6.84;100.00
19831;BME280;10076;52.008;4.708;2024-03-08T08:32:36;101430.09;;;6.98;100.00
19831;BME280;10076;52.008;4.708;2024-03-08T08:35:02;101427.84;;;7.26;100.00
19831;BME280;10076;52.008;4.708;2024-03-08T08:37:29;101419.97;;;7.26;100.00
19831;BME280;10076;52.008;4.708;2024-03-08T08:39:55;101424.09;;;7.32;100.00
19831;BME280;10076;52.008;4.708;2024-03-08T08:42:20;101421.72;;;7.44;100.00
19831;BME280;10076;52.008;4.708;2024-03-08T08:44:45;101414.75;;;7.61;100.00
19831;BME280;10076;52.008;4.708;2024-03-08T08:47:11;101417.75;;;7.71;100.00
19831;BME280;10076;52.008;4.708;2024-03-08T08:49:38;101409.41;;;7.80;100.00
19831;BME280;10076;52.008;4.708;2024-03-08T08:52:03;101404.31;;;7.94;100.00
19831;BME280;10076;52.008;4.708;2024-03-08T08:54:29;101411.03;;;7.99;100.00
19831;BME280;10076;52.008;4.708;2024-03-08T08:56:54;101403.94;;;8.18;100.00
19831;BME280;10076;52.008;4.708;2024-03-08T08:59:20;101404.84;;;8.17;100.00
19831;BME280;10076;52.008;4.708;2024-03-08T09:01:46;101398.97;;;8.29;100.00
19831;BME280;10076;52.008;4.708;2024-03-08T09:04:15;101397.81;;;8.50;100.00
19831;BME280;10076;52.008;4.708;2024-03-08T09:06:40;101395.41;;;8.62;100.00
19831;BME280;10076;52.008;4.708;2024-03-08T09:09:06;101388.72;;;8.88;100.00
19831;BME280;10076;52.008;4.708;2024-03-08T09:11:34;101394.38;;;9.57;100.00
19831;BME280;10076;52.008;4.708;2024-03-08T09:13:59;101382.16;;;10.42;100.00
19831;BME280;10076;52.008;4.708;2024-03-08T09:16:26;101386.41;;;11.13;100.00
19831;BME280;10076;52.008;4.708;2024-03-08T09:18:51;101382.28;;;11.62;100.00
19831;BME280;10076;52.008;4.708;2024-03-08T09:21:17;101386.06;;;11.96;100.00
19831;BME280;10076;52.008;4.708;2024-03-08T09:23:42;101382.69;;;12.56;100.00
19831;BME280;10076;52.008;4.708;2024-03-08T09:26:10;101374.41;;;12.98;100.00
19831;BME280;10076;52.008;4.708;2024-03-08T09:28:38;101370.09;;;13.20;100.00
19831;BME280;10076;52.008;4.708;2024-03-08T09:31:03;101362.16;;;13.78;100.00
19831;BME280;10076;52.008;4.708;2024-03-08T09:33:30;101369.09;;;14.37;100.00
19831;BME280;10076;52.008;4.708;2024-03-08T09:35:56;101359.44;;;14.79;100.00
19831;BME280;10076;52.008;4.708;2024-03-08T09:38:23;101363.13;;;15.31;100.00
19831;BME280;10076;52.008;4.708;2024-03-08T09:40:50;101358.06;;;16.11;100.00
19831;BME280;10076;52.008;4.708;2024-03-08T09:43:15;101352.84;;;16.51;100.00
19831;BME280;10076;52.008;4.708;2024-03-08T09:45:42;101347.09;;;16.85;100.00
19831;BME280;10076;52.008;4.708;2024-03-08T09:48:11;101337.16;;;17.06;100.00
19831;BME280;10076;52.008;4.708;2024-03-08T09:50:38;101333.03;;;17.50;100.00
19831;BME280;10076;52.008;4.708;2024-03-08T09:53:04;101324.81;;;17.05;100.00
19831;BME280;10076;52.008;4.708;2024-03-08T09:55:29;101320.41;;;17.43;100.00
19831;BME280;10076;52.008;4.708;2024-03-08T09:58:00;101311.84;;;18.42;100.00
19831;BME280;10076;52.008;4.708;2024-03-08T10:00:55;101307.91;;;18.72;100.00
19831;BME280;10076;52.008;4.708;2024-03-08T10:03:26;101313.59;;;19.58;100.00
19831;BME280;10076;52.008;4.708;2024-03-08T10:05:52;101308.28;;;19.66;98.75
19831;BME280;10076;52.008;4.708;2024-03-08T10:08:17;101299.31;;;19.75;100.00
19831;BME280;10076;52.008;4.708;2024-03-08T10:10:42;101291.94;;;19.77;96.15
19831;BME280;10076;52.008;4.708;2024-03-08T10:13:09;101289.59;;;20.16;94.93
19831;BME280;10076;52.008;4.708;2024-03-08T10:15:39;101288.28;;;20.79;91.40
19831;BME280;10076;52.008;4.708;2024-03-08T10:18:05;101279.97;;;21.06;89.04
19831;BME280;10076;52.008;4.708;2024-03-08T10:20:31;101275.03;;;21.74;87.17
19831;BME280;10076;52.008;4.708;2024-03-08T10:23:03;101272.19;;;21.76;86.47
19831;BME280;10076;52.008;4.708;2024-03-08T10:25:33;101268.59;;;22.07;84.07
19831;BME280;10076;52.008;4.708;2024-03-08T10:27:59;101262.47;;;21.75;83.03
19831;BME280;10076;52.008;4.708;2024-03-08T10:30:24;101258.66;;;22.78;81.69
19831;BME280;10076;52.008;4.708;2024-03-08T10:32:49;101252.88;;;23.41;77.93
19831;BME280;10076;52.008;4.708;2024-03-08T10:35:16;101255.97;;;23.97;75.25
19831;BME280;10076;52.008;4.708;2024-03-08T10:37:49;101244.91;;;23.70;74.70
19831;BME280;10076;52.008;4.708;2024-03-08T10:40:19;101245.91;;;23.69;72.46
19831;BME280;10076;52.008;4.708;2024-03-08T10:42:58;101223.38;;;23.25;71.86
19831;BME280;10076;52.008;4.708;2024-03-08T10:45:37;101225.78;;;22.90;72.27
19831;BME280;10076;52.008;4.708;2024-03-08T10:48:22;101211.09;;;23.23;71.65
19831;BME280;10076;52.008;4.708;2024-03-08T10:50:53;101205.50;;;23.47;71.89
19831;BME280;10076;52.008;4.708;2024-03-08T10:53:19;101213.22;;;23.72;69.44
19831;BME280;10076;52.008;4.708;2024-03-08T10:55:46;101209.38;;;24.46;69.52
19831;BME280;10076;52.008;4.708;2024-03-08T10:58:12;101202.97;;;24.47;67.03
19831;BME280;10076;52.008;4.708;2024-03-08T11:00:40;101192.59;;;24.65;66.23
19831;BME280;10076;52.008;4.708;2024-03-08T11:03:06;101197.25;;;24.71;65.88
19831;BME280;10076;52.008;4.708;2024-03-08T11:05:38;101196.31;;;23.78;66.06
19831;BME280;10076;52.008;4.708;2024-03-08T11:08:19;101179.41;;;24.13;67.18
19831;BME280;10076;52.008;4.708;2024-03-08T11:10:49;101182.25;;;25.25;64.36
19831;BME280;10076;52.008;4.708;2024-03-08T11:16:02;101167.56;;;25.82;61.03
19831;BME280;10076;52.008;4.708;2024-03-08T11:18:33;101160.91;;;25.84;58.46
19831;BME280;10076;52.008;4.708;2024-03-08T11:21:03;101155.28;;;25.80;59.35
19831;BME280;10076;52.008;4.708;2024-03-08T11:23:32;101143.66;;;26.72;60.23
19831;BME280;10076;52.008;4.708;2024-03-08T11:25:58;101138.50;;;25.97;56.79
19831;BME280;10076;52.008;4.708;2024-03-08T11:28:24;101144.03;;;25.82;57.04
19831;BME280;10076;52.008;4.708;2024-03-08T11:33:26;101126.19;;;25.88;59.04
19831;BME280;10076;52.008;4.708;2024-03-08T11:35:52;101126.72;;;26.51;55.89
19831;BME280;10076;52.008;4.708;2024-03-08T11:38:22;101121.09;;;26.59;54.28
19831;BME280;10076;52.008;4.708;2024-03-08T11:40:48;101124.78;;;27.37;54.95
19831;BME280;10076;52.008;4.708;2024-03-08T11:43:16;101117.69;;;27.04;52.09
19831;BME280;10076;52.008;4.708;2024-03-08T11:45:43;101116.44;;;27.51;51.88
19831;BME280;10076;52.008;4.708;2024-03-08T11:48:08;101121.03;;;27.51;50.91
19831;BME280;10076;52.008;4.708;2024-03-08T11:50:33;101117.19;;;26.74;52.28
19831;BME280;10076;52.008;4.708;2024-03-08T11:53:06;101107.84;;;26.90;52.57
19831;BME280;10076;52.008;4.708;2024-03-08T11:55:32;101111.25;;;26.39;52.73
19831;BME280;10076;52.008;4.708;2024-03-08T11:58:03;101111.19;;;26.32;52.03
19831;BME280;10076;52.008;4.708;2024-03-08T12:00:29;101106.19;;;26.29;51.53
19831;BME280;10076;52.008;4.708;2024-03-08T12:03:08;101099.53;;;27.62;52.35
19831;BME280;10076;52.008;4.708;2024-03-08T12:05:35;101104.22;;;28.12;50.28
19831;BME280;10076;52.008;4.708;2024-03-08T12:08:02;101095.34;;;26.82;49.85
19831;BME280;10076;52.008;4.708;2024-03-08T12:10:28;101093.88;;;26.20;49.86
19831;BME280;10076;52.008;4.708;2024-03-08T12:12:56;101088.44;;;25.80;52.46
19831;BME280;10076;52.008;4.708;2024-03-08T12:15:24;101081.06;;;24.92;51.65
19831;BME280;10076;52.008;4.708;2024-03-08T12:17:51;101089.72;;;25.29;55.25
19831;BME280;10076;52.008;4.708;2024-03-08T12:20:25;101079.50;;;26.26;52.56
19831;BME280;10076;52.008;4.708;2024-03-08T12:22:52;101076.81;;;27.31;51.18
19831;BME280;10076;52.008;4.708;2024-03-08T12:25:18;101074.50;;;27.02;50.78
19831;BME280;10076;52.008;4.708;2024-03-08T12:27:45;101059.38;;;25.61;51.58
19831;BME280;10076;52.008;4.708;2024-03-08T12:30:25;101059.03;;;26.17;52.06
19831;BME280;10076;52.008;4.708;2024-03-08T12:32:59;101056.09;;;26.78;51.90
19831;BME280;10076;52.008;4.708;2024-03-08T12:35:27;101049.59;;;27.89;50.63
19831;BME280;10076;52.008;4.708;2024-03-08T12:37:54;101052.84;;;28.04;48.60
19831;BME280;10076;52.008;4.708;2024-03-08T12:40:28;101043.31;;;27.89;48.68
19831;BME280;10076;52.008;4.708;2024-03-08T12:42:55;101042.19;;;27.20;49.15
19831;BME280;10076;52.008;4.708;2024-03-08T12:45:21;101033.16;;;27.45;49.50
19831;BME280;10076;52.008;4.708;2024-03-08T12:47:52;101031.31;;;28.09;48.97
19831;BME280;10076;52.008;4.708;2024-03-08T12:50:18;101033.84;;;28.85;47.85
19831;BME280;10076;52.008;4.708;2024-03-08T12:52:44;101029.78;;;30.14;46.43